createdAt,value
2023-05-11T00:01:59.541Z,101322.09
2023-05-11T00:04:28.039Z,101324.55
2023-05-11T00:06:56.343Z,101325.77
2023-05-11T00:09:25.137Z,101327.33
2023-05-11T00:11:54.588Z,101328.04
2023-05-11T00:14:22.877Z,101333.63
2023-05-11T00:16:51.154Z,101334.50
2023-05-11T00:19:21.339Z,101342.73
2023-05-11T00:21:51.184Z,101345.34
2023-05-11T00:24:21.338Z,101344.29
2023-05-11T00:26:50.460Z,101347.95
2023-05-11T00:29:19.816Z,101350.04
2023-05-11T00:31:49.449Z,101354.95
2023-05-11T00:34:21.274Z,101359.48
2023-05-11T00:36:50.891Z,101364.02
2023-05-11T00:39:20.077Z,101366.46
2023-05-11T00:41:50.730Z,101362.25
2023-05-11T00:44:20.015Z,101362.61
2023-05-11T00:46:52.432Z,101362.79
2023-05-11T00:49:23.109Z,101358.03
2023-05-11T00:51:52.642Z,101358.89
2023-05-11T00:54:21.606Z,101357.83
2023-05-11T00:56:51.414Z,101355.91
2023-05-11T00:59:20.428Z,101358.71
2023-05-11T01:01:48.710Z,101357.81
2023-05-11T01:04:18.928Z,101355.88
2023-05-11T01:06:54.730Z,101356.04
2023-05-11T01:09:31.340Z,101348.34
2023-05-11T01:12:05.936Z,101345.16
2023-05-11T01:14:35.135Z,101347.95
2023-05-11T01:17:05.860Z,101347.25
2023-05-11T01:19:42.029Z,101346.70
2023-05-11T01:22:16.795Z,101349.48
2023-05-11T01:24:54.911Z,101352.27
2023-05-11T01:27:32.071Z,101355.77
2023-05-11T01:30:11.845Z,101350.67
2023-05-11T01:32:41.796Z,101348.02
2023-05-11T01:35:12.246Z,101350.98
2023-05-11T01:37:42.063Z,101352.36
2023-05-11T01:40:13.653Z,101357.77
2023-05-11T01:42:45.898Z,101356.34
2023-05-11T01:45:14.654Z,101352.64
2023-05-11T01:47:45.567Z,101350.89
2023-05-11T01:50:15.410Z,101351.75
2023-05-11T01:52:45.698Z,101352.27
2023-05-11T01:55:15.542Z,101348.59
2023-05-11T01:57:44.360Z,101347.53
2023-05-11T02:00:16.170Z,101348.55
2023-05-11T02:02:45.435Z,101349.05
2023-05-11T02:05:15.682Z,101357.07
2023-05-11T02:07:45.415Z,101356.31
2023-05-11T02:10:15.267Z,101354.70
2023-05-11T02:12:44.351Z,101357.11
2023-05-11T02:15:12.966Z,101362.11
2023-05-11T02:17:41.478Z,101362.70
2023-05-11T02:20:11.033Z,101365.45
2023-05-11T02:22:39.952Z,101365.23
2023-05-11T02:25:10.049Z,101365.02
2023-05-11T02:27:40.100Z,101369.85
2023-05-11T02:30:09.467Z,101365.59
2023-05-11T02:32:42.755Z,101363.26
2023-05-11T02:35:15.222Z,101364.96
2023-05-11T02:37:45.664Z,101364.38
2023-05-11T02:40:17.011Z,101363.80
2023-05-11T02:42:48.612Z,101357.11
2023-05-11T02:45:18.067Z,101365.33
2023-05-11T02:47:52.939Z,101366.73
2023-05-11T02:50:23.705Z,101370.05
2023-05-11T02:52:55.294Z,101369.86
2023-05-11T02:55:26.643Z,101369.52
2023-05-11T02:57:58.358Z,101373.17
2023-05-11T03:00:27.972Z,101373.53
2023-05-11T03:02:58.650Z,101376.82
2023-05-11T03:05:28.449Z,101378.23
2023-05-11T03:07:58.135Z,101377.04
2023-05-11T03:10:28.343Z,101376.13
2023-05-11T03:12:58.089Z,101380.81
2023-05-11T03:15:29.935Z,101384.64
2023-05-11T03:18:01.498Z,101384.80
2023-05-11T03:20:30.773Z,101388.27
2023-05-11T03:23:05.527Z,101387.96
2023-05-11T03:25:34.978Z,101389.89
2023-05-11T03:28:05.866Z,101394.09
2023-05-11T03:30:34.637Z,101390.42
2023-05-11T03:33:03.730Z,101388.49
2023-05-11T03:35:33.854Z,101390.77
2023-05-11T03:38:05.881Z,101394.65
2023-05-11T03:40:34.203Z,101396.75
2023-05-11T03:43:03.991Z,101402.34
2023-05-11T03:45:33.533Z,101401.33
2023-05-11T03:48:03.426Z,101406.94
2023-05-11T03:50:31.981Z,101413.09
2023-05-11T03:53:03.827Z,101416.94
2023-05-11T03:55:32.346Z,101417.34
2023-05-11T03:58:05.618Z,101418.59
2023-05-11T04:00:34.205Z,101420.70
2023-05-11T04:03:05.177Z,101421.61
2023-05-11T04:05:33.758Z,101420.63
2023-05-11T04:08:02.505Z,101425.02
2023-05-11T04:10:32.759Z,101426.31
2023-05-11T04:13:02.686Z,101428.45
2023-05-11T04:15:32.799Z,101427.10
2023-05-11T04:18:01.772Z,101427.71
2023-05-11T04:20:31.385Z,101428.84
2023-05-11T04:23:00.234Z,101432.05
2023-05-11T04:25:35.620Z,101433.69
2023-05-11T04:28:03.887Z,101430.95
2023-05-11T04:30:33.470Z,101427.65
2023-05-11T04:33:06.795Z,101430.00
2023-05-11T04:35:39.238Z,101435.61
2023-05-11T04:38:07.604Z,101439.17
2023-05-11T04:40:36.750Z,101440.09
2023-05-11T04:43:07.848Z,101439.98
2023-05-11T04:45:36.487Z,101438.77
2023-05-11T04:48:05.950Z,101440.91
2023-05-11T04:50:36.817Z,101442.35
2023-05-11T04:53:05.457Z,101441.52
2023-05-11T04:55:35.473Z,101446.28
2023-05-11T04:58:05.895Z,101454.02
2023-05-11T05:00:36.070Z,101452.20
2023-05-11T05:03:05.923Z,101449.88
2023-05-11T05:05:35.309Z,101450.77
2023-05-11T05:08:04.545Z,101450.25
2023-05-11T05:10:35.038Z,101452.37
2023-05-11T05:13:06.455Z,101452.20
2023-05-11T05:15:36.932Z,101452.58
2023-05-11T05:18:06.395Z,101450.67
2023-05-11T05:20:36.045Z,101454.55
2023-05-11T05:23:05.681Z,101458.46
2023-05-11T05:25:35.251Z,101459.00
2023-05-11T05:28:06.098Z,101454.29
2023-05-11T05:30:36.609Z,101451.86
2023-05-11T05:33:06.521Z,101451.34
2023-05-11T05:35:36.352Z,101455.40
2023-05-11T05:38:05.627Z,101453.32
2023-05-11T05:40:37.104Z,101452.98
2023-05-11T05:43:09.369Z,101450.55
2023-05-11T05:45:40.704Z,101450.89
2023-05-11T05:48:09.771Z,101453.19
2023-05-11T05:50:42.178Z,101454.06
2023-05-11T05:53:10.762Z,101455.31
2023-05-11T05:55:39.254Z,101455.84
2023-05-11T05:58:09.020Z,101457.59
2023-05-11T06:00:38.662Z,101462.52
2023-05-11T06:03:08.989Z,101457.94
2023-05-11T06:05:39.110Z,101449.88
2023-05-11T06:08:11.178Z,101448.29
2023-05-11T06:10:40.673Z,101450.23
2023-05-11T06:13:09.920Z,101451.44
2023-05-11T06:15:43.736Z,101448.63
2023-05-11T06:18:14.544Z,101448.98
2023-05-11T06:20:42.821Z,101452.65
2023-05-11T06:23:10.869Z,101451.10
2023-05-11T06:25:39.349Z,101454.77
2023-05-11T06:28:08.274Z,101453.54
2023-05-11T06:30:41.664Z,101454.58
2023-05-11T06:33:10.632Z,101455.43
2023-05-11T06:35:39.920Z,101457.53
2023-05-11T06:38:09.296Z,101461.90
2023-05-11T06:40:40.627Z,101458.92
2023-05-11T06:43:09.188Z,101455.58
2023-05-11T06:45:41.158Z,101461.56
2023-05-11T06:48:10.163Z,101458.95
2023-05-11T06:50:40.528Z,101457.73
2023-05-11T06:53:13.324Z,101452.80
2023-05-11T06:55:41.553Z,101453.15
2023-05-11T06:58:12.352Z,101455.09
2023-05-11T07:00:41.784Z,101452.09
2023-05-11T07:03:10.295Z,101448.90
2023-05-11T07:05:39.721Z,101445.89
2023-05-11T07:08:10.434Z,101450.10
2023-05-11T07:10:41.075Z,101451.48
2023-05-11T07:13:09.141Z,101453.56
2023-05-11T07:15:40.096Z,101451.60
2023-05-11T07:18:09.505Z,101458.42
2023-05-11T07:20:41.335Z,101456.81
2023-05-11T07:23:09.818Z,101459.25
2023-05-11T07:25:38.625Z,101457.48
2023-05-11T07:28:09.149Z,101459.91
2023-05-11T07:30:38.254Z,101457.95
2023-05-11T07:33:08.694Z,101458.28
2023-05-11T07:35:40.411Z,101462.11
2023-05-11T07:38:11.353Z,101457.70
2023-05-11T07:40:40.869Z,101453.63
2023-05-11T07:43:15.978Z,101452.38
2023-05-11T07:45:44.974Z,101452.38
2023-05-11T07:48:13.875Z,101452.88
2023-05-11T07:50:42.556Z,101448.98
2023-05-11T07:53:10.756Z,101450.40
2023-05-11T07:55:40.893Z,101453.91
2023-05-11T07:58:09.898Z,101447.02
2023-05-11T08:00:40.835Z,101449.41
2023-05-11T08:03:10.395Z,101449.21
2023-05-11T08:05:49.565Z,101447.45
2023-05-11T08:08:17.787Z,101443.51
2023-05-11T08:10:45.869Z,101448.58
2023-05-11T08:13:14.547Z,101446.77
2023-05-11T08:15:50.051Z,101451.80
2023-05-11T08:18:20.177Z,101448.92
2023-05-11T08:20:48.631Z,101447.27
2023-05-11T08:23:18.085Z,101447.91
2023-05-11T08:25:51.488Z,101442.59
2023-05-11T08:28:20.207Z,101449.80
2023-05-11T08:30:53.380Z,101441.84
2023-05-11T08:35:55.880Z,101438.40
2023-05-11T08:38:24.657Z,101436.76
2023-05-11T08:40:52.733Z,101432.11
2023-05-11T08:43:23.067Z,101432.04
2023-05-11T08:45:54.720Z,101431.11
2023-05-11T08:48:28.818Z,101431.38
2023-05-11T08:50:59.056Z,101432.59
2023-05-11T08:53:27.722Z,101432.14
2023-05-11T08:56:00.897Z,101425.77
2023-05-11T08:58:30.840Z,101427.69
2023-05-11T09:00:59.861Z,101424.14
2023-05-11T09:03:30.069Z,101421.97
2023-05-11T09:06:02.604Z,101421.02
2023-05-11T09:08:31.615Z,101420.25
2023-05-11T09:11:00.403Z,101418.95
2023-05-11T09:13:32.531Z,101415.89
2023-05-11T09:16:02.451Z,101410.34
2023-05-11T09:18:30.939Z,101407.27
2023-05-11T09:21:02.051Z,101401.71
2023-05-11T09:23:33.198Z,101401.61
2023-05-11T09:26:13.207Z,101404.71
2023-05-11T09:31:42.713Z,101400.95
2023-05-11T09:34:13.227Z,101393.75
2023-05-11T09:36:41.824Z,101386.95
2023-05-11T09:41:44.238Z,101384.15
2023-05-11T09:44:17.183Z,101385.98
2023-05-11T09:46:47.120Z,101385.34
2023-05-11T09:49:15.253Z,101382.59
2023-05-11T09:51:43.396Z,101384.59
2023-05-11T09:54:18.946Z,101378.64
2023-05-11T09:56:48.639Z,101376.48
2023-05-11T09:59:18.915Z,101376.35
2023-05-11T10:01:55.209Z,101376.17
2023-05-11T10:04:33.224Z,101376.42
2023-05-11T10:07:04.508Z,101374.02
2023-05-11T10:09:33.821Z,101371.05
2023-05-11T10:12:01.983Z,101367.77
2023-05-11T10:14:30.680Z,101370.13
2023-05-11T10:17:01.469Z,101361.30
2023-05-11T10:19:29.675Z,101360.61
2023-05-11T10:22:03.294Z,101356.85
2023-05-11T10:24:32.274Z,101358.53
2023-05-11T10:27:12.035Z,101352.23
2023-05-11T10:29:48.567Z,101350.54
2023-05-11T10:32:18.837Z,101353.95
2023-05-11T10:34:50.016Z,101348.34
2023-05-11T10:38:15.053Z,101345.56
2023-05-11T10:44:28.118Z,101344.81
2023-05-11T10:47:06.078Z,101341.23
2023-05-11T10:47:33.212Z,101347.12
2023-05-11T10:49:45.988Z,101339.15
2023-05-11T10:52:24.261Z,101338.41
2023-05-11T10:55:06.524Z,101330.65
2023-05-11T10:57:55.092Z,101328.31
2023-05-11T11:00:47.186Z,101332.94
2023-05-11T11:03:15.806Z,101332.73
2023-05-11T11:05:46.442Z,101332.58
2023-05-11T11:08:15.148Z,101331.70
2023-05-11T11:10:45.748Z,101334.94
2023-05-11T11:13:14.783Z,101328.03
2023-05-11T11:16:01.482Z,101332.06
2023-05-11T11:18:30.522Z,101323.90
2023-05-11T11:20:58.771Z,101320.90
2023-05-11T11:23:48.489Z,101318.98
2023-05-11T11:26:18.821Z,101322.64
2023-05-11T11:29:11.903Z,101319.80
2023-05-11T11:31:41.725Z,101324.92
2023-05-11T11:34:27.594Z,101321.90
2023-05-11T11:37:05.595Z,101320.64
2023-05-11T11:39:49.439Z,101318.95
2023-05-11T11:42:18.312Z,101314.98
2023-05-11T11:44:46.796Z,101307.36
2023-05-11T11:47:15.640Z,101304.27
2023-05-11T11:49:45.501Z,101306.98
2023-05-11T11:52:14.843Z,101303.87
2023-05-11T11:54:46.248Z,101305.13
2023-05-11T11:57:38.100Z,101304.42
2023-05-11T12:00:11.879Z,101305.61
2023-05-11T12:02:47.652Z,101300.15
2023-05-11T12:05:18.293Z,101291.39
2023-05-11T12:07:47.974Z,101285.77
2023-05-11T12:10:17.332Z,101284.27
2023-05-11T12:13:01.035Z,101281.16
2023-05-11T12:15:32.848Z,101284.89
2023-05-11T12:18:04.013Z,101281.33
2023-05-11T12:20:33.852Z,101282.55
2023-05-11T12:23:03.643Z,101277.13
2023-05-11T12:25:34.167Z,101266.74
2023-05-11T12:28:09.606Z,101262.84
2023-05-11T12:30:51.093Z,101262.88
2023-05-11T12:33:24.544Z,101255.48
2023-05-11T12:35:53.168Z,101261.08
2023-05-11T12:38:22.065Z,101260.98
2023-05-11T12:40:52.335Z,101256.55
2023-05-11T12:43:23.134Z,101253.56
2023-05-11T12:45:53.105Z,101252.42
2023-05-11T12:48:26.426Z,101251.47
2023-05-11T12:58:10.840Z,101234.67
2023-05-11T12:58:14.376Z,101237.59
2023-05-11T13:00:51.910Z,101235.73
2023-05-11T13:01:28.088Z,101236.06
2023-05-11T13:03:23.962Z,101230.30
2023-05-11T13:05:53.778Z,101232.64
2023-05-11T13:08:21.916Z,101230.81
2023-05-11T13:10:50.188Z,101228.92
2023-05-11T13:13:28.410Z,101226.06
2023-05-11T13:15:57.038Z,101223.23
2023-05-11T13:18:26.853Z,101221.48
2023-05-11T13:21:13.933Z,101215.44
2023-05-11T13:24:05.079Z,101207.19
2023-05-11T13:26:38.892Z,101196.15
2023-05-11T13:29:11.241Z,101204.06
2023-05-11T13:31:47.167Z,101208.42
2023-05-11T13:34:16.393Z,101205.48
2023-05-11T13:36:48.514Z,101205.17
2023-05-11T13:39:19.847Z,101205.16
2023-05-11T13:41:55.051Z,101196.92
2023-05-11T13:44:26.127Z,101195.94
2023-05-11T13:46:56.446Z,101196.92
2023-05-11T13:49:24.876Z,101200.09
2023-05-11T13:51:54.974Z,101203.20
2023-05-11T13:54:23.170Z,101204.44
2023-05-11T13:56:51.446Z,101204.25
2023-05-11T13:59:19.410Z,101203.98
2023-05-11T14:01:47.372Z,101203.43
2023-05-11T14:04:16.164Z,101202.39
2023-05-11T14:06:45.836Z,101192.96
2023-05-11T14:09:14.955Z,101193.85
2023-05-11T14:11:44.162Z,101183.98
2023-05-11T14:14:14.484Z,101180.66
2023-05-11T14:16:42.900Z,101183.23
2023-05-11T14:19:11.711Z,101189.77
2023-05-11T14:21:39.799Z,101191.66
2023-05-11T14:24:12.595Z,101192.58
2023-05-11T14:26:41.763Z,101191.91
2023-05-11T14:29:09.797Z,101187.21
2023-05-11T14:31:38.607Z,101180.56
2023-05-11T14:34:07.425Z,101180.20
2023-05-11T14:36:36.563Z,101182.45
2023-05-11T14:39:04.726Z,101184.33
2023-05-11T14:41:32.886Z,101186.77
2023-05-11T14:44:01.292Z,101185.59
2023-05-11T14:46:29.873Z,101187.02
2023-05-11T14:48:58.116Z,101191.20
2023-05-11T14:51:26.175Z,101187.79
2023-05-11T14:53:54.288Z,101186.38
2023-05-11T14:56:23.269Z,101189.02
2023-05-11T14:58:51.782Z,101187.90
2023-05-11T15:01:23.315Z,101187.20
2023-05-11T15:03:53.703Z,101186.88
2023-05-11T15:06:23.012Z,101182.25
2023-05-11T15:09:12.097Z,101183.30
2023-05-11T15:11:42.555Z,101185.63
2023-05-11T15:14:11.693Z,101184.23
2023-05-11T15:16:40.498Z,101177.66
2023-05-11T15:19:10.284Z,101181.17
2023-05-11T15:21:42.901Z,101185.05
2023-05-11T15:24:11.972Z,101183.86
2023-05-11T15:26:41.071Z,101185.08
2023-05-11T15:29:11.515Z,101183.31
2023-05-11T15:31:39.546Z,101185.61
2023-05-11T15:34:07.960Z,101183.41
2023-05-11T15:36:36.321Z,101184.94
2023-05-11T15:39:04.691Z,101184.70
2023-05-11T15:41:33.904Z,101189.59
2023-05-11T15:44:02.034Z,101186.08
2023-05-11T15:46:30.775Z,101187.04
2023-05-11T15:49:00.108Z,101186.75
2023-05-11T15:51:28.763Z,101185.39
2023-05-11T15:53:56.927Z,101182.50
2023-05-11T15:56:26.442Z,101184.02
2023-05-11T15:58:54.770Z,101184.26
2023-05-11T16:01:24.165Z,101186.48
2023-05-11T16:03:53.507Z,101191.48
2023-05-11T16:06:22.369Z,101190.20
2023-05-11T16:08:50.882Z,101193.05
2023-05-11T16:11:20.894Z,101188.54
2023-05-11T16:13:49.954Z,101191.52
2023-05-11T16:16:26.986Z,101193.65
2023-05-11T16:18:57.155Z,101196.36
2023-05-11T16:21:25.666Z,101196.61
2023-05-11T16:23:55.249Z,101199.05
2023-05-11T16:26:24.769Z,101203.59
2023-05-11T16:28:53.564Z,101204.21
2023-05-11T16:31:22.137Z,101207.58
2023-05-11T16:33:50.992Z,101207.16
2023-05-11T16:36:19.317Z,101214.84
2023-05-11T16:38:48.231Z,101218.98
2023-05-11T16:41:17.165Z,101220.09
2023-05-11T16:43:47.084Z,101221.08
2023-05-11T16:46:17.062Z,101215.81
2023-05-11T16:48:47.508Z,101218.41
2023-05-11T16:51:18.787Z,101224.36
2023-05-11T16:53:47.314Z,101224.48
2023-05-11T16:56:18.208Z,101221.62
2023-05-11T16:58:48.517Z,101226.04
2023-05-11T17:01:22.778Z,101226.34
2023-05-11T17:03:52.606Z,101227.17
2023-05-11T17:06:28.340Z,101234.07
2023-05-11T17:08:58.454Z,101231.45
2023-05-11T17:11:26.952Z,101235.26
2023-05-11T17:13:56.609Z,101235.64
2023-05-11T17:16:25.342Z,101239.02
2023-05-11T17:18:54.424Z,101242.33
2023-05-11T17:21:23.628Z,101242.61
2023-05-11T17:23:52.592Z,101245.08
2023-05-11T17:26:25.092Z,101245.36
2023-05-11T17:28:56.428Z,101245.69
2023-05-11T17:31:25.595Z,101245.91
2023-05-11T17:33:53.923Z,101245.77
2023-05-11T17:41:42.207Z,101253.06
2023-05-11T17:44:10.637Z,101253.20
2023-05-11T17:46:39.240Z,101258.46
2023-05-11T17:49:08.347Z,101262.67
2023-05-11T17:51:36.877Z,101265.16
2023-05-11T17:54:07.805Z,101272.91
2023-05-11T17:56:41.100Z,101276.95
2023-05-11T17:59:10.652Z,101281.86
2023-05-11T18:01:41.233Z,101283.25
2023-05-11T18:04:09.462Z,101288.14
2023-05-11T18:06:37.700Z,101287.52
2023-05-11T18:09:07.046Z,101288.30
2023-05-11T18:11:35.707Z,101292.09
2023-05-11T18:14:04.692Z,101296.08
2023-05-11T18:16:33.454Z,101301.50
2023-05-11T18:19:01.610Z,101300.49
2023-05-11T18:21:30.473Z,101304.00
2023-05-11T18:23:59.006Z,101307.25
2023-05-11T18:26:27.492Z,101309.05
2023-05-11T18:28:55.752Z,101311.10
2023-05-11T18:31:23.975Z,101313.16
2023-05-11T18:33:52.237Z,101314.13
2023-05-11T18:36:20.155Z,101315.98
2023-05-11T18:38:48.908Z,101313.50
2023-05-11T18:41:18.685Z,101313.45
2023-05-11T18:43:48.114Z,101327.48
2023-05-11T18:46:18.541Z,101333.34
2023-05-11T18:48:52.094Z,101337.67
2023-05-11T18:51:23.295Z,101338.39
2023-05-11T18:53:52.302Z,101342.30
2023-05-11T18:56:21.633Z,101347.69
2023-05-11T18:58:50.204Z,101347.97
2023-05-11T19:01:18.230Z,101349.27
2023-05-11T19:03:48.062Z,101350.73
2023-05-11T19:06:17.666Z,101349.73
2023-05-11T19:08:53.356Z,101356.65
2023-05-11T19:11:26.620Z,101355.98
2023-05-11T19:13:55.185Z,101355.50
2023-05-11T19:16:26.239Z,101356.65
2023-05-11T19:18:58.964Z,101355.14
2023-05-11T19:21:29.595Z,101353.80
2023-05-11T19:23:58.846Z,101354.38
2023-05-11T19:26:30.913Z,101351.79
2023-05-11T19:28:59.831Z,101354.65
2023-05-11T19:31:30.882Z,101358.21
2023-05-11T19:33:59.456Z,101359.52
2023-05-11T19:36:28.163Z,101361.84
2023-05-11T19:38:56.809Z,101363.98
2023-05-11T19:41:26.204Z,101364.05
2023-05-11T19:43:59.954Z,101367.80
2023-05-11T19:46:29.865Z,101367.67
2023-05-11T19:48:59.114Z,101369.67
2023-05-11T19:51:27.434Z,101368.13
2023-05-11T19:53:55.580Z,101368.16
2023-05-11T19:56:23.669Z,101371.17
2023-05-11T19:58:51.806Z,101370.32
2023-05-11T20:01:20.399Z,101371.91
2023-05-11T20:03:49.224Z,101374.05
2023-05-11T20:06:19.089Z,101375.81
2023-05-11T20:08:48.967Z,101370.36
2023-05-11T20:11:17.937Z,101372.15
2023-05-11T20:13:47.331Z,101373.23
2023-05-11T20:16:16.375Z,101370.27
2023-05-11T20:18:46.064Z,101371.34
2023-05-11T20:21:16.750Z,101365.23
2023-05-11T20:23:45.000Z,101372.63
2023-05-11T20:26:14.250Z,101374.06
2023-05-11T20:28:42.889Z,101375.31
2023-05-11T20:31:11.248Z,101377.23
2023-05-11T20:36:10.624Z,101381.15
2023-05-11T20:38:38.412Z,101379.95
2023-05-11T20:41:07.040Z,101385.94
2023-05-11T20:43:35.922Z,101383.86
2023-05-11T20:46:04.225Z,101384.20
2023-05-11T20:48:39.852Z,101388.24
2023-05-11T20:51:09.155Z,101389.66
2023-05-11T20:53:37.362Z,101390.73
2023-05-11T20:56:06.139Z,101386.52
2023-05-11T20:58:34.592Z,101385.81
2023-05-11T21:01:04.350Z,101387.42
2023-05-11T21:03:32.413Z,101385.17
2023-05-11T21:06:00.750Z,101387.83
2023-05-11T21:08:32.044Z,101384.85
2023-05-11T21:11:07.432Z,101383.81
2023-05-11T21:13:39.717Z,101386.46
2023-05-11T21:16:08.301Z,101385.59
2023-05-11T21:18:36.562Z,101385.80
2023-05-11T21:21:04.966Z,101385.80
2023-05-11T21:23:33.736Z,101387.57
2023-05-11T21:26:02.649Z,101386.72
2023-05-11T21:28:34.012Z,101389.88
2023-05-11T21:31:04.541Z,101387.44
2023-05-11T21:33:32.929Z,101389.90
2023-05-11T21:36:03.241Z,101387.27
2023-05-11T21:38:33.227Z,101386.59
2023-05-11T21:41:01.598Z,101388.54
2023-05-11T21:43:30.853Z,101383.44
2023-05-11T21:46:00.828Z,101385.22
2023-05-11T21:48:29.698Z,101383.48
2023-05-11T21:50:57.630Z,101385.58
2023-05-11T21:53:26.014Z,101384.19
2023-05-11T21:55:55.043Z,101383.31
2023-05-11T21:58:29.205Z,101384.38
2023-05-11T22:00:57.344Z,101382.95
2023-05-11T22:03:28.025Z,101384.89
2023-05-11T22:05:56.740Z,101384.73
2023-05-11T22:08:25.023Z,101385.44
2023-05-11T22:10:53.086Z,101385.10
2023-05-11T22:13:21.380Z,101384.21
2023-05-11T22:15:49.295Z,101384.04
2023-05-11T22:18:18.009Z,101382.46
2023-05-11T22:20:47.019Z,101378.80
2023-05-11T22:23:15.706Z,101377.56
2023-05-11T22:25:44.782Z,101380.02
2023-05-11T22:28:12.656Z,101375.29
2023-05-11T22:30:40.974Z,101373.72
2023-05-11T22:33:09.162Z,101375.84
2023-05-11T22:35:37.112Z,101379.34
2023-05-11T22:38:05.235Z,101373.90
2023-05-11T22:40:33.541Z,101373.91
2023-05-11T22:43:02.799Z,101374.45
2023-05-11T22:45:31.261Z,101371.80
2023-05-11T22:47:59.334Z,101373.21
2023-05-11T22:50:27.369Z,101378.83
2023-05-11T22:52:58.396Z,101379.18
2023-05-11T22:55:28.416Z,101378.47
2023-05-11T22:57:56.508Z,101377.42
2023-05-11T23:00:24.844Z,101374.09
2023-05-11T23:02:53.387Z,101375.33
2023-05-11T23:05:21.673Z,101371.48
2023-05-11T23:07:49.728Z,101370.40
2023-05-11T23:10:18.618Z,101373.39
2023-05-11T23:12:47.942Z,101368.84
2023-05-11T23:15:17.337Z,101370.23
2023-05-11T23:17:45.740Z,101372.52
2023-05-11T23:20:14.910Z,101373.92
2023-05-11T23:22:42.955Z,101377.08
2023-05-11T23:25:11.634Z,101375.15
2023-05-11T23:27:39.886Z,101377.77
2023-05-11T23:30:08.625Z,101380.58
2023-05-11T23:32:36.636Z,101383.73
2023-05-11T23:35:05.478Z,101380.58
2023-05-11T23:37:33.361Z,101376.71
2023-05-11T23:40:01.679Z,101376.36
2023-05-11T23:42:29.939Z,101377.95
2023-05-11T23:45:03.666Z,101378.80
2023-05-11T23:47:31.877Z,101379.69
2023-05-11T23:50:00.206Z,101376.86
2023-05-11T23:52:29.663Z,101379.51
2023-05-11T23:54:57.978Z,101380.90
2023-05-11T23:57:26.145Z,101380.73
2023-05-11T23:59:54.197Z,101377.38
